createdAt,value
2023-04-09T00:00:12.007Z,77.14
2023-04-09T00:02:10.072Z,77.34
2023-04-09T00:03:39.143Z,77.14
2023-04-09T00:08:02.526Z,77.04
2023-04-09T00:19:46.066Z,76.93
2023-04-09T00:23:40.380Z,76.73
2023-04-09T00:26:36.504Z,76.73
2023-04-09T00:30:30.865Z,76.93
2023-04-09T00:32:00.611Z,76.93
2023-04-09T00:33:57.954Z,77.04
2023-04-09T00:35:26.951Z,76.84
2023-04-09T00:45:13.828Z,76.84
2023-04-09T00:47:11.863Z,76.73
2023-04-09T00:49:09.903Z,76.53
2023-04-09T00:51:07.894Z,76.53
2023-04-09T00:53:05.950Z,76.53
2023-04-09T00:55:33.633Z,76.43
2023-04-09T00:57:01.929Z,76.43
2023-04-09T00:59:28.961Z,76.43
2023-04-09T01:03:23.180Z,76.53
2023-04-09T01:05:50.130Z,76.32
2023-04-09T01:09:15.269Z,76.32
2023-04-09T01:21:52.359Z,76.63
2023-04-09T01:24:48.457Z,76.53
2023-04-09T01:28:42.630Z,76.53
2023-04-09T01:30:11.634Z,76.43
2023-04-09T01:33:36.756Z,76.43
2023-04-09T01:37:31.927Z,76.02
2023-04-09T01:40:56.418Z,75.92
2023-04-09T01:42:25.417Z,75.61
2023-04-09T01:47:47.023Z,75.82
2023-04-09T01:49:15.997Z,75.82
2023-04-09T01:52:12.198Z,75.82
2023-04-09T01:56:35.400Z,75.71
2023-04-09T01:58:04.436Z,75.71
2023-04-09T02:01:30.094Z,75.51
2023-04-09T02:05:52.602Z,75.61
2023-04-09T02:08:19.688Z,75.20
2023-04-09T02:11:44.728Z,75.31
2023-04-09T02:19:02.532Z,75.00
2023-04-09T02:25:51.924Z,74.69
2023-04-09T02:32:40.991Z,74.49
2023-04-09T02:34:09.191Z,74.38
2023-04-09T02:35:38.279Z,74.29
2023-04-09T02:38:34.267Z,74.08
2023-04-09T02:40:32.894Z,74.29
2023-04-09T02:45:54.221Z,73.60
2023-04-09T02:52:13.371Z,73.81
2023-04-09T02:55:09.927Z,74.32
2023-04-09T03:06:20.426Z,74.46
2023-04-09T03:15:05.152Z,74.90
2023-04-09T03:17:32.402Z,74.80
2023-04-09T03:26:46.629Z,75.04
2023-04-09T03:32:37.362Z,75.34
2023-04-09T03:34:35.599Z,75.14
2023-04-09T03:42:51.251Z,75.65
2023-04-09T03:45:48.667Z,76.09
2023-04-09T03:46:47.708Z,75.65
2023-04-09T03:47:48.400Z,75.24
2023-04-09T03:54:07.047Z,75.68
2023-04-09T03:59:28.354Z,76.09
2023-04-09T04:08:12.769Z,75.79
2023-04-09T04:14:32.057Z,76.03
2023-04-09T04:17:58.502Z,76.03
2023-04-09T04:21:22.458Z,75.72
2023-04-09T04:23:20.638Z,75.93
2023-04-09T04:24:49.650Z,75.62
2023-04-09T04:29:12.843Z,76.37
2023-04-09T04:30:41.879Z,76.47
2023-04-09T04:33:39.084Z,76.68
2023-04-09T04:38:59.121Z,76.27
2023-04-09T04:41:55.104Z,76.47
2023-04-09T04:43:53.823Z,76.92
2023-04-09T04:45:53.625Z,76.27
2023-04-09T04:47:49.237Z,76.37
2023-04-09T05:01:53.166Z,76.61
2023-04-09T05:04:49.184Z,76.31
2023-04-09T05:08:14.288Z,76.20
2023-04-09T05:12:37.355Z,76.92
2023-04-09T05:14:06.304Z,76.51
2023-04-09T05:15:35.651Z,76.31
2023-04-09T05:18:32.077Z,76.72
2023-04-09T05:21:28.302Z,76.51
2023-04-09T05:25:22.233Z,76.72
2023-04-09T05:28:47.421Z,76.51
2023-04-09T05:30:45.429Z,76.31
2023-04-09T05:34:39.911Z,76.51
2023-04-09T05:36:37.892Z,76.40
2023-04-09T05:42:28.261Z,76.31
2023-04-09T05:51:42.104Z,76.27
2023-04-09T05:53:40.647Z,76.37
2023-04-09T05:59:32.435Z,76.27
2023-04-09T06:01:59.402Z,76.27
2023-04-09T06:09:46.355Z,75.82
2023-04-09T06:12:14.090Z,75.72
2023-04-09T06:14:12.300Z,75.62
2023-04-09T06:16:10.868Z,75.52
2023-04-09T06:21:03.167Z,75.38
2023-04-09T06:22:32.191Z,75.27
2023-04-09T06:25:57.570Z,75.07
2023-04-09T06:30:21.013Z,75.07
2023-04-09T06:31:49.921Z,74.73
2023-04-09T06:33:19.038Z,74.73
2023-04-09T06:35:46.175Z,74.63
2023-04-09T06:37:44.125Z,74.63
2023-04-09T06:40:40.318Z,74.52
2023-04-09T06:45:03.904Z,74.29
2023-04-09T06:54:18.828Z,73.98
2023-04-09T06:55:47.840Z,73.94
2023-04-09T07:04:53.152Z,73.33
2023-04-09T07:08:18.353Z,72.99
2023-04-09T07:12:12.706Z,72.69
2023-04-09T07:16:07.173Z,72.34
2023-04-09T07:21:57.599Z,72.21
2023-04-09T07:23:55.689Z,71.80
2023-04-09T07:26:52.611Z,71.50
2023-04-09T07:37:03.868Z,71.15
2023-04-09T07:38:32.746Z,71.12
2023-04-09T07:42:56.245Z,70.41
2023-04-09T07:44:54.957Z,70.51
2023-04-09T07:46:52.778Z,70.61
2023-04-09T07:50:17.886Z,70.38
2023-04-09T07:52:45.653Z,70.28
2023-04-09T07:54:43.702Z,69.84
2023-04-09T07:55:43.692Z,69.63
2023-04-09T07:56:43.634Z,69.53
2023-04-09T08:00:38.194Z,69.02
2023-04-09T08:02:35.861Z,68.51
2023-04-09T08:04:05.186Z,68.71
2023-04-09T08:09:26.902Z,68.58
2023-04-09T08:11:24.934Z,67.77
2023-04-09T08:16:17.903Z,68.18
2023-04-09T08:23:06.812Z,67.02
2023-04-09T08:35:16.013Z,66.08
2023-04-09T08:38:12.898Z,65.33
2023-04-09T08:40:39.348Z,66.05
2023-04-09T08:46:00.572Z,64.59
2023-04-09T08:50:28.221Z,64.15
2023-04-09T08:51:57.881Z,64.06
2023-04-09T08:53:55.180Z,63.34
2023-04-09T08:58:19.186Z,63.04
2023-04-09T09:00:18.006Z,62.84
2023-04-09T09:03:14.949Z,63.21
2023-04-09T09:06:10.955Z,63.11
2023-04-09T09:07:39.924Z,61.99
2023-04-09T09:09:08.915Z,62.10
2023-04-09T09:14:31.326Z,62.81
2023-04-09T09:19:28.394Z,59.26
2023-04-09T09:24:50.672Z,58.72
2023-04-09T09:26:19.376Z,59.70
2023-04-09T09:30:42.635Z,56.44
2023-04-09T09:32:11.993Z,57.15
2023-04-09T09:33:11.901Z,57.24
2023-04-09T09:34:11.903Z,56.13
2023-04-09T09:41:00.683Z,56.54
2023-04-09T09:43:27.634Z,56.34
2023-04-09T09:47:51.319Z,56.34
2023-04-09T09:50:18.334Z,56.71
2023-04-09T09:54:41.932Z,54.99
2023-04-09T09:56:40.248Z,54.86
2023-04-09T10:02:06.132Z,53.55
2023-04-09T10:05:31.346Z,53.34
2023-04-09T10:07:00.191Z,52.41
2023-04-09T10:09:56.572Z,52.61
2023-04-09T10:12:53.068Z,52.59
2023-04-09T10:14:21.924Z,52.39
2023-04-09T10:21:40.638Z,50.79
2023-04-09T10:23:37.744Z,50.69
2023-04-09T10:24:37.743Z,51.40
2023-04-09T10:25:37.704Z,52.11
2023-04-09T10:28:34.580Z,50.87
2023-04-09T10:36:22.204Z,51.25
2023-04-09T10:38:20.214Z,49.81
2023-04-09T10:41:45.224Z,50.01
2023-04-09T10:44:41.334Z,49.43
2023-04-09T10:46:10.361Z,47.91
2023-04-09T10:48:08.404Z,49.22
2023-04-09T10:52:02.691Z,48.60
2023-04-09T10:55:56.956Z,48.50
2023-04-09T10:57:54.905Z,48.19
2023-04-09T11:00:51.102Z,48.70
2023-04-09T11:02:20.379Z,49.71
2023-04-09T11:03:49.222Z,49.61
2023-04-09T11:05:18.200Z,48.58
2023-04-09T11:12:06.908Z,48.17
2023-04-09T11:14:04.979Z,48.55
2023-04-09T11:17:30.180Z,48.47
2023-04-09T11:20:55.245Z,47.97
2023-04-09T11:24:20.491Z,49.18
2023-04-09T11:25:49.442Z,49.28
2023-04-09T11:27:47.529Z,48.78
2023-04-09T11:29:16.750Z,48.27
2023-04-09T11:30:46.225Z,48.98
2023-04-09T11:34:39.965Z,49.58
2023-04-09T11:39:03.446Z,48.78
2023-04-09T11:43:26.844Z,48.45
2023-04-09T11:46:23.614Z,49.96
2023-04-09T11:48:21.382Z,48.85
2023-04-09T11:49:49.999Z,49.33
2023-04-09T11:58:06.652Z,49.24
2023-04-09T12:01:02.887Z,49.64
2023-04-09T12:02:31.987Z,49.56
2023-04-09T12:09:12.149Z,50.09
2023-04-09T12:15:02.445Z,49.96
2023-04-09T12:21:22.230Z,49.24
2023-04-09T12:29:08.909Z,48.73
2023-04-09T12:32:34.732Z,48.10
2023-04-09T12:35:32.490Z,48.22
2023-04-09T12:43:47.485Z,48.55
2023-04-09T12:46:14.594Z,47.72
2023-04-09T12:47:43.604Z,47.62
2023-04-09T12:49:42.361Z,47.70
2023-04-09T12:52:08.674Z,48.00
2023-04-09T12:53:38.767Z,48.00
2023-04-09T12:58:30.005Z,46.71
2023-04-09T12:59:59.022Z,48.22
2023-04-09T13:01:28.074Z,47.64
2023-04-09T13:03:55.435Z,49.26
2023-04-09T13:08:47.382Z,48.81
2023-04-09T13:10:16.348Z,48.21
2023-04-09T13:12:15.034Z,47.58
2023-04-09T13:19:32.911Z,47.70
2023-04-09T13:22:29.085Z,47.42
2023-04-09T13:25:25.366Z,47.22
2023-04-09T13:27:23.444Z,48.05
2023-04-09T13:29:50.695Z,48.05
2023-04-09T13:30:50.687Z,48.05
2023-04-09T13:31:50.652Z,48.05
2023-04-09T13:36:13.828Z,48.15
2023-04-09T13:38:12.223Z,48.83
2023-04-09T13:40:09.805Z,48.41
2023-04-09T13:44:04.167Z,47.40
2023-04-09T13:45:33.314Z,46.57
2023-04-09T13:48:00.411Z,46.97
2023-04-09T13:49:58.381Z,46.57
2023-04-09T13:52:28.218Z,47.35
2023-04-09T13:54:23.428Z,47.45
2023-04-09T13:55:52.499Z,45.94
2023-04-09T14:01:14.558Z,46.55
2023-04-09T14:04:40.188Z,46.04
2023-04-09T14:08:34.202Z,47.07
2023-04-09T14:10:32.219Z,47.09
2023-04-09T14:12:01.280Z,48.00
2023-04-09T14:17:51.917Z,48.22
2023-04-09T14:22:15.033Z,47.62
2023-04-09T14:26:09.131Z,48.73
2023-04-09T14:27:38.110Z,48.13
2023-04-09T14:29:07.097Z,48.43
2023-04-09T14:31:05.219Z,48.02
2023-04-09T14:32:34.156Z,48.10
2023-04-09T14:35:01.161Z,47.50
2023-04-09T14:36:59.186Z,47.72
2023-04-09T14:39:26.297Z,48.13
2023-04-09T14:42:22.381Z,47.40
2023-04-09T14:44:20.446Z,47.30
2023-04-09T14:48:44.039Z,47.60
2023-04-09T14:50:42.822Z,47.09
2023-04-09T14:57:31.444Z,47.90
2023-04-09T15:00:27.728Z,47.50
2023-04-09T15:01:27.786Z,46.69
2023-04-09T15:02:27.962Z,46.79
2023-04-09T15:07:19.824Z,46.37
2023-04-09T15:10:45.099Z,46.59
2023-04-09T15:13:51.986Z,46.39
2023-04-09T15:15:20.998Z,46.89
2023-04-09T15:21:11.400Z,46.51
2023-04-09T15:24:36.501Z,47.12
2023-04-09T15:28:01.856Z,47.82
2023-04-09T15:30:00.037Z,47.62
2023-04-09T15:33:16.024Z,47.72
2023-04-09T15:35:43.326Z,46.81
2023-04-09T15:38:39.460Z,47.95
2023-04-09T15:40:08.628Z,47.92
2023-04-09T15:51:18.712Z,47.92
2023-04-09T15:53:17.036Z,47.74
2023-04-09T15:54:16.996Z,47.52
2023-04-09T15:55:17.038Z,47.92
2023-04-09T15:57:15.182Z,46.92
2023-04-09T15:58:44.202Z,46.81
2023-04-09T16:06:31.431Z,47.24
2023-04-09T16:10:54.987Z,47.04
2023-04-09T16:13:22.092Z,48.45
2023-04-09T16:16:48.910Z,48.17
2023-04-09T16:18:45.841Z,48.88
2023-04-09T16:21:12.847Z,48.98
2023-04-09T16:23:40.114Z,49.38
2023-04-09T16:26:36.973Z,49.61
2023-04-09T16:28:34.684Z,50.21
2023-04-09T16:31:01.844Z,49.73
2023-04-09T16:37:21.720Z,50.14
2023-04-09T16:39:19.689Z,50.44
2023-04-09T16:41:46.705Z,50.04
2023-04-09T16:45:12.832Z,50.24
2023-04-09T16:49:06.975Z,50.04
2023-04-09T16:51:05.163Z,49.93
2023-04-09T16:52:34.191Z,50.04
2023-04-09T16:56:28.533Z,49.76
2023-04-09T16:57:57.528Z,49.84
2023-04-09T17:04:18.044Z,49.96
2023-04-09T17:06:15.039Z,49.66
2023-04-09T17:08:13.276Z,49.66
2023-04-09T17:10:11.432Z,50.06
2023-04-09T17:11:40.404Z,50.26
2023-04-09T17:27:41.403Z,51.20
2023-04-09T17:29:39.527Z,50.59
2023-04-09T17:40:20.208Z,51.12
2023-04-09T17:41:49.204Z,50.51
2023-04-09T17:42:49.158Z,50.21
2023-04-09T17:43:49.170Z,50.61
2023-04-09T17:47:43.370Z,50.92
2023-04-09T17:51:08.719Z,52.03
2023-04-09T17:53:35.719Z,51.22
2023-04-09T17:56:31.782Z,51.93
2023-04-09T18:04:48.356Z,52.46
2023-04-09T18:07:15.349Z,51.95
2023-04-09T18:13:05.577Z,52.39
2023-04-09T18:15:32.744Z,52.59
2023-04-09T18:18:30.049Z,52.79
2023-04-09T18:19:58.928Z,53.19
2023-04-09T18:25:49.200Z,54.03
2023-04-09T18:28:45.617Z,53.42
2023-04-09T18:34:07.412Z,54.33
2023-04-09T18:37:32.551Z,54.57
2023-04-09T18:39:30.548Z,54.24
2023-04-09T18:43:25.252Z,55.07
2023-04-09T18:45:52.296Z,54.77
2023-04-09T18:53:10.300Z,55.37
2023-04-09T19:01:26.286Z,55.71
2023-04-09T19:03:53.580Z,56.01
2023-04-09T19:07:18.923Z,55.71
2023-04-09T19:10:15.106Z,55.83
2023-04-09T19:16:08.380Z,56.24
2023-04-09T19:21:28.708Z,56.44
2023-04-09T19:25:52.220Z,57.25
2023-04-09T19:27:21.519Z,57.76
2023-04-09T19:28:50.544Z,57.86
2023-04-09T19:30:19.670Z,57.46
2023-04-09T19:33:16.301Z,58.06
2023-04-09T19:36:12.348Z,57.59
2023-04-09T19:39:37.443Z,57.18
2023-04-09T19:40:37.399Z,57.08
2023-04-09T19:41:37.684Z,57.38
2023-04-09T19:44:33.696Z,57.28
2023-04-09T19:50:25.295Z,57.48
2023-04-09T19:55:21.058Z,57.79
2023-04-09T19:57:19.041Z,57.92
2023-04-09T20:00:44.309Z,57.41
2023-04-09T20:02:42.350Z,58.12
2023-04-09T20:06:07.914Z,57.92
2023-04-09T20:10:01.417Z,58.22
2023-04-09T20:12:57.932Z,59.14
2023-04-09T20:15:25.084Z,58.53
2023-04-09T20:16:54.177Z,58.63
2023-04-09T20:20:19.587Z,58.63
2023-04-09T20:22:17.619Z,58.63
2023-04-09T20:23:46.616Z,58.42
2023-04-09T20:33:29.196Z,58.76
2023-04-09T20:39:19.726Z,59.37
2023-04-09T20:40:48.699Z,58.86
2023-04-09T20:42:17.712Z,59.09
2023-04-09T20:45:13.864Z,59.50
2023-04-09T20:47:11.785Z,59.77
2023-04-09T20:50:08.055Z,59.19
2023-04-09T20:55:29.679Z,60.11
2023-04-09T20:59:23.973Z,60.24
2023-04-09T21:01:51.933Z,59.60
2023-04-09T21:09:37.969Z,59.50
2023-04-09T21:11:06.936Z,59.30
2023-04-09T21:14:03.373Z,59.73
2023-04-09T21:20:22.672Z,59.96
2023-04-09T21:22:49.749Z,60.16
2023-04-09T21:31:05.586Z,61.29
2023-04-09T21:32:34.724Z,60.57
2023-04-09T21:36:00.238Z,60.68
2023-04-09T21:37:58.185Z,60.57
2023-04-09T21:42:21.492Z,61.11
2023-04-09T21:45:17.933Z,60.80
2023-04-09T21:47:15.490Z,61.11
2023-04-09T21:48:15.415Z,60.60
2023-04-09T21:49:15.439Z,60.30
2023-04-09T21:52:40.483Z,60.50
2023-04-09T21:56:05.730Z,60.19
2023-04-09T21:57:34.573Z,60.50
2023-04-09T21:59:32.534Z,60.80
2023-04-09T22:01:01.656Z,60.80
2023-04-09T22:02:31.216Z,60.50
2023-04-09T22:04:28.829Z,60.91
2023-04-09T22:05:57.786Z,61.21
2023-04-09T22:07:27.048Z,60.60
2023-04-09T22:08:57.297Z,60.80
2023-04-09T22:13:18.796Z,61.41
2023-04-09T22:14:47.817Z,60.73
2023-04-09T22:16:16.829Z,61.21
2023-04-09T22:18:14.946Z,61.34
2023-04-09T22:23:35.890Z,60.83
2023-04-09T22:26:31.906Z,61.34
2023-04-09T22:28:59.599Z,61.24
2023-04-09T22:33:51.790Z,60.93
2023-04-09T22:37:16.877Z,60.42
2023-04-09T22:38:45.839Z,60.83
2023-04-09T22:43:38.171Z,60.42
2023-04-09T22:48:01.262Z,61.24
2023-04-09T22:50:57.246Z,61.34
2023-04-09T22:56:47.334Z,60.42
2023-04-09T22:58:45.307Z,61.44
2023-04-09T23:00:14.302Z,60.93
2023-04-09T23:02:41.482Z,60.32
2023-04-09T23:09:01.188Z,60.66
2023-04-09T23:11:28.112Z,60.45
2023-04-09T23:13:55.466Z,60.55
2023-04-09T23:19:16.937Z,59.94
2023-04-09T23:21:44.222Z,60.86
2023-04-09T23:31:56.919Z,60.14
2023-04-09T23:33:54.432Z,60.45
2023-04-09T23:36:50.285Z,60.25
2023-04-09T23:44:36.910Z,60.45
2023-04-09T23:48:31.136Z,60.28
2023-04-09T23:50:29.824Z,60.07
2023-04-09T23:52:27.149Z,60.28
2023-04-09T23:55:23.270Z,60.48
